Time;durP1;ratioP1;P1;durP2;ratioP2;P2;SDS_P1;SDS_P2;PMS_P1;PMS_P2;Temp;Humidity;BMP_temperature;BMP_pressure;BME280_temperature;BME280_humidity;BME280_pressure;Samples;Min_cycle;Max_cycle;Signal;HPM_P1;HPM_P2
2022/11/11 00:01:23;;;;;;;2.50;1.13;;;;;;;9.91;100.00;102429.75;6198263;28;20054;-72
2022/11/11 00:04:24;;;;;;;2.03;1.00;;;;;;;9.89;100.00;102436.78;6198187;28;20051;-72
2022/11/11 00:07:26;;;;;;;2.15;1.45;;;;;;;9.90;100.00;102438.50;6198569;28;20054;-72
2022/11/11 00:10:28;;;;;;;1.77;0.80;;;;;;;9.88;100.00;102440.31;6197796;28;20498;-72
2022/11/11 00:13:31;;;;;;;3.22;1.30;;;;;;;9.88;100.00;102445.56;6198072;28;20053;-72
2022/11/11 00:26:38;;;;;;;3.08;1.42;;;;;;;9.80;100.00;102447.50;6197907;28;20050;-73
2022/11/11 00:29:45;;;;;;;2.25;1.35;;;;;;;9.76;100.00;102457.19;6197794;28;20414;-72
2022/11/11 00:32:47;;;;;;;4.35;1.10;;;;;;;9.76;100.00;102458.97;6198265;28;20057;-72
2022/11/11 00:35:54;;;;;;;14.00;1.40;;;;;;;9.73;100.00;102466.94;6197544;28;20050;-72
2022/11/11 00:38:57;;;;;;;2.08;1.42;;;;;;;9.75;100.00;102478.25;6198045;28;20050;-72
2022/11/11 00:41:58;;;;;;;4.80;1.45;;;;;;;9.72;100.00;102473.06;6197343;28;20556;-72
2022/11/11 00:45:01;;;;;;;2.85;1.27;;;;;;;9.72;100.00;102476.56;6197620;28;20054;-73
2022/11/11 00:51:21;;;;;;;3.17;1.20;;;;;;;9.69;100.00;102478.41;6197375;28;20074;-72
2022/11/11 00:54:23;;;;;;;2.78;1.20;;;;;;;9.65;100.00;102480.22;6197363;28;20054;-72
2022/11/11 00:57:24;;;;;;;3.30;1.17;;;;;;;9.63;100.00;102487.28;6197655;28;20418;-72
2022/11/11 01:00:27;;;;;;;3.92;0.90;;;;;;;9.58;100.00;102473.34;6197292;28;20050;-72
2022/11/11 01:03:29;;;;;;;3.65;1.35;;;;;;;9.50;100.00;102489.28;6197683;28;20057;-72
2022/11/11 01:06:30;;;;;;;6.65;1.38;;;;;;;9.46;100.00;102495.50;6197219;28;20438;-72
2022/11/11 01:09:32;;;;;;;3.33;1.20;;;;;;;9.45;100.00;102495.50;6197498;28;20057;-72
2022/11/11 01:12:33;;;;;;;2.17;1.30;;;;;;;9.39;100.00;102499.13;6197401;28;20046;-72
2022/11/11 01:15:36;;;;;;;5.68;1.35;;;;;;;9.38;100.00;102494.78;6197012;28;20050;-72
2022/11/11 01:18:37;;;;;;;1.80;0.90;;;;;;;9.37;100.00;102485.19;6197485;28;20105;-72
2022/11/11 01:21:39;;;;;;;3.10;1.15;;;;;;;9.37;100.00;102495.69;6197006;28;20054;-73
2022/11/11 01:24:40;;;;;;;2.50;1.17;;;;;;;9.34;100.00;102483.47;6198193;28;20057;-71
2022/11/11 01:27:42;;;;;;;1.15;1.00;;;;;;;9.30;100.00;102478.31;6202265;28;20559;-72
2022/11/11 01:30:44;;;;;;;8.25;1.98;;;;;;;9.24;100.00;102487.19;6201821;28;20050;-72
2022/11/11 01:33:46;;;;;;;6.30;1.70;;;;;;;9.20;100.00;102475.03;6201642;28;20426;-72
2022/11/11 01:36:48;;;;;;;1.60;1.20;;;;;;;9.15;100.00;102469.00;6202115;28;20518;-72
2022/11/11 01:39:49;;;;;;;5.07;1.50;;;;;;;9.16;100.00;102460.25;6201647;28;20054;-71
2022/11/11 01:42:52;;;;;;;4.57;1.40;;;;;;;9.10;100.00;102458.59;6201960;28;20508;-71
2022/11/11 01:45:58;;;;;;;3.42;1.67;;;;;;;9.09;100.00;102454.25;6201641;28;20053;-72
2022/11/11 01:49:18;;;;;;;4.03;1.25;;;;;;;9.08;100.00;102463.03;6201717;28;20057;-72
2022/11/11 01:52:24;;;;;;;5.68;1.50;;;;;;;9.07;100.00;102478.78;6201163;28;20046;-73
2022/11/11 01:55:26;;;;;;;1.52;0.90;;;;;;;9.07;100.00;102491.88;6199137;28;20050;-72
2022/11/11 01:58:28;;;;;;;2.83;1.10;;;;;;;9.08;100.00;102483.13;6201298;28;20157;-72
2022/11/11 02:01:31;;;;;;;3.05;0.82;;;;;;;9.07;100.00;102484.88;6200827;28;20512;-71
2022/11/11 02:07:54;;;;;;;5.45;1.13;;;;;;;9.09;100.00;102477.88;6201472;28;20081;-72
2022/11/11 02:10:56;;;;;;;2.67;1.20;;;;;;;9.10;100.00;102474.34;6200566;28;20061;-72
2022/11/11 02:17:18;;;;;;;3.20;1.20;;;;;;;9.10;100.00;102455.97;6201173;28;20050;-73
2022/11/11 02:20:23;;;;;;;5.05;1.40;;;;;;;9.05;100.00;102460.47;6200520;28;20046;-71
2022/11/11 02:23:31;;;;;;;9.27;1.30;;;;;;;9.05;100.00;102465.72;6200936;28;20513;-72
2022/11/11 02:26:35;;;;;;;4.03;1.23;;;;;;;9.04;100.00;102468.38;6200437;28;20057;-72
2022/11/11 02:29:37;;;;;;;1.58;1.10;;;;;;;9.05;100.00;102468.31;6200837;28;20050;-74
2022/11/11 02:32:39;;;;;;;4.45;1.13;;;;;;;9.06;100.00;102467.44;6200447;28;20053;-72
2022/11/11 02:35:45;;;;;;;7.07;1.45;;;;;;;9.09;100.00;102463.91;6200150;28;20050;-71
2022/11/11 02:38:46;;;;;;;2.85;1.35;;;;;;;9.08;100.00;102473.53;6200309;28;20057;-72
2022/11/11 02:41:58;;;;;;;2.33;1.15;;;;;;;9.07;100.00;102470.91;6200378;28;20054;-72
2022/11/11 02:44:59;;;;;;;3.55;1.27;;;;;;;9.06;100.00;102469.19;6199969;28;20042;-73
2022/11/11 02:48:01;;;;;;;2.55;1.10;;;;;;;9.03;100.00;102459.59;6200563;28;20055;-72
2022/11/11 02:51:02;;;;;;;6.70;1.50;;;;;;;9.06;100.00;102456.94;6199781;28;20054;-72
2022/11/11 02:54:04;;;;;;;2.45;1.00;;;;;;;9.06;100.00;102466.56;6200175;28;20129;-72
2022/11/11 02:57:06;;;;;;;3.65;1.10;;;;;;;9.05;100.00;102452.59;6200160;28;20050;-72
2022/11/11 03:00:09;;;;;;;5.28;1.05;;;;;;;9.04;100.00;102460.50;6199917;28;20050;-73
2022/11/11 03:03:11;;;;;;;1.85;1.00;;;;;;;9.04;100.00;102458.75;6199884;28;20061;-71
2022/11/11 03:06:12;;;;;;;2.03;1.10;;;;;;;9.04;100.00;102466.59;6198088;28;20050;-72
2022/11/11 03:09:14;;;;;;;1.90;1.10;;;;;;;9.05;100.00;102467.47;6199950;28;20050;-72
2022/11/11 03:12:17;;;;;;;2.55;1.15;;;;;;;9.05;100.00;102462.22;6199332;28;20057;-72
2022/11/11 03:15:18;;;;;;;2.17;0.98;;;;;;;9.04;100.00;102463.97;6199441;28;20050;-73
2022/11/11 03:18:19;;;;;;;3.55;1.33;;;;;;;9.03;100.00;102456.97;6199890;28;20058;-72
2022/11/11 03:21:20;;;;;;;3.80;1.33;;;;;;;9.03;100.00;102454.38;6199609;28;20057;-72
2022/11/11 03:24:22;;;;;;;2.25;1.10;;;;;;;9.02;100.00;102462.28;6199001;28;20510;-72
2022/11/11 03:27:24;;;;;;;9.35;1.77;;;;;;;9.00;100.00;102470.19;6199723;28;20057;-73
2022/11/11 03:30:26;;;;;;;1.95;1.23;;;;;;;9.02;100.00;102481.50;6198861;28;20050;-72
2022/11/11 03:33:27;;;;;;;2.40;1.30;;;;;;;9.04;100.00;102484.97;6199388;28;20042;-72
2022/11/11 03:38:14;;;;;;;6.95;1.35;;;;;;;9.06;100.00;102492.78;6198948;28;20050;-73
2022/11/11 03:39:49;;;;;;;6.30;1.48;;;;;;;9.05;100.00;102489.31;6198624;28;20137;-72
2022/11/11 03:42:52;;;;;;;2.05;1.00;;;;;;;9.04;100.00;102491.97;6198851;28;20097;-71
2022/11/11 03:45:55;;;;;;;4.07;1.20;;;;;;;9.05;100.00;102485.81;6198752;28;20059;-72
2022/11/11 03:48:56;;;;;;;6.10;1.00;;;;;;;9.04;100.00;102478.84;6198893;28;20061;-72
2022/11/11 03:51:58;;;;;;;1.77;1.27;;;;;;;9.04;100.00;102477.09;6198748;28;20061;-72
2022/11/11 03:54:59;;;;;;;4.28;2.00;;;;;;;9.08;100.00;102473.53;6198381;28;20046;-72
2022/11/11 03:58:02;;;;;;;3.25;1.52;;;;;;;9.06;100.00;102477.91;6199024;28;20054;-71
2022/11/11 04:10:21;;;;;;;4.10;1.20;;;;;;;9.03;100.00;102487.59;6198312;28;20061;-71
2022/11/11 04:11:03;;;;;;;2.92;1.80;;;;;;;9.04;100.00;102494.59;6185959;28;20141;-71
2022/11/11 04:17:28;;;;;;;3.05;1.33;;;;;;;9.05;100.00;102489.31;6198396;28;20050;-72
2022/11/11 04:23:48;;;;;;;4.07;1.58;;;;;;;9.08;100.00;102486.63;6197938;28;20136;-72
2022/11/11 04:26:49;;;;;;;2.92;1.48;;;;;;;9.07;100.00;102494.50;6198141;28;20053;-72
2022/11/11 04:29:52;;;;;;;4.38;1.23;;;;;;;9.06;100.00;102492.78;6197888;28;20050;-71
2022/11/11 04:32:52;;;;;;;5.50;1.38;;;;;;;9.06;100.00;102498.03;6198050;28;20046;-71
2022/11/11 04:35:54;;;;;;;3.45;1.25;;;;;;;9.05;100.00;102505.03;6197824;28;20046;-72
2022/11/11 04:42:14;;;;;;;2.80;0.98;;;;;;;9.09;100.00;102514.59;6197655;28;20055;-72
2022/11/11 04:45:29;;;;;;;3.90;1.60;;;;;;;9.11;100.00;102511.91;6197377;28;20046;-72
2022/11/11 04:48:31;;;;;;;1.63;1.10;;;;;;;9.11;100.00;102519.78;6197990;28;20062;-71
2022/11/11 04:58:03;;;;;;;1.70;1.15;;;;;;;9.05;100.00;102517.28;6175502;28;20581;-72
2022/11/11 05:01:06;;;;;;;2.10;1.20;;;;;;;9.05;100.00;102526.03;6196662;28;20498;-71
2022/11/11 05:04:06;;;;;;;6.72;1.40;;;;;;;8.99;100.00;102526.13;6197193;28;20049;-72
2022/11/11 05:10:27;;;;;;;1.65;1.00;;;;;;;9.03;100.00;102516.44;6197052;28;20086;-72
2022/11/11 05:25:24;;;;;;;;;;;;;;;8.98;100.00;102497.31;6197885;28;20054;-73
2022/11/11 05:26:49;;;;;;;1.25;0.85;;;;;;;8.95;100.00;102503.50;6197233;28;20289;-72
2022/11/11 05:29:50;;;;;;;5.55;1.65;;;;;;;8.94;100.00;102506.13;6197158;28;20057;-72
2022/11/11 05:32:54;;;;;;;5.90;2.20;;;;;;;8.88;100.00;102502.72;6197260;28;20050;-71
2022/11/11 05:35:56;;;;;;;6.20;2.30;;;;;;;8.89;100.00;102511.44;6197148;28;20046;-72
2022/11/11 05:38:57;;;;;;;5.05;1.10;;;;;;;8.87;100.00;102505.38;6197347;28;20057;-72
2022/11/11 05:41:59;;;;;;;2.83;1.73;;;;;;;8.86;100.00;102501.91;6196832;28;20419;-72
2022/11/11 05:45:00;;;;;;;4.53;1.20;;;;;;;8.83;100.00;102516.81;6196778;28;20046;-72
2022/11/11 05:48:03;;;;;;;3.08;1.60;;;;;;;8.83;100.00;102519.44;6197180;28;20057;-72
2022/11/11 05:51:05;;;;;;;6.45;2.33;;;;;;;8.85;100.00;102513.25;6196793;28;20058;-72
2022/11/11 05:54:06;;;;;;;2.85;1.40;;;;;;;8.85;100.00;102512.38;6196669;28;20046;-71
2022/11/11 05:57:08;;;;;;;2.45;1.23;;;;;;;8.86;100.00;102522.88;6197280;28;20061;-73
2022/11/11 06:00:10;;;;;;;6.50;1.65;;;;;;;8.88;100.00;102517.59;6196508;28;20061;-72
2022/11/11 06:03:13;;;;;;;4.28;1.52;;;;;;;8.83;100.00;102517.66;6197110;28;20482;-72
2022/11/11 06:06:15;;;;;;;1.42;0.95;;;;;;;8.80;100.00;102519.47;6190804;28;20058;-72
2022/11/11 06:09:16;;;;;;;3.63;1.55;;;;;;;8.76;100.00;102523.03;6187540;28;20392;-72
2022/11/11 06:12:17;;;;;;;2.97;1.20;;;;;;;8.79;100.00;102525.63;6185311;28;20057;-72
2022/11/11 06:15:19;;;;;;;2.70;1.50;;;;;;;8.83;100.00;102530.78;6186988;28;20062;-71
2022/11/11 06:18:22;;;;;;;7.93;1.67;;;;;;;8.86;100.00;102529.88;6187878;28;20051;-73
2022/11/11 06:21:23;;;;;;;5.07;1.70;;;;;;;8.83;100.00;102529.91;6187052;28;20059;-72
2022/11/11 06:24:25;;;;;;;2.83;1.77;;;;;;;8.83;100.00;102528.16;6186738;28;20078;-73
2022/11/11 06:27:26;;;;;;;3.13;1.70;;;;;;;8.84;100.00;102529.03;6187826;28;20055;-72
2022/11/11 06:30:28;;;;;;;12.73;5.38;;;;;;;8.84;100.00;102527.25;6186208;28;20069;-71
2022/11/11 06:33:30;;;;;;;2.53;1.73;;;;;;;8.83;100.00;102538.66;6188012;28;20054;-71
2022/11/11 06:36:32;;;;;;;4.78;1.85;;;;;;;8.85;100.00;102536.84;6185560;28;20057;-71
2022/11/11 06:39:33;;;;;;;6.15;1.90;;;;;;;8.87;100.00;102542.09;6186107;28;20057;-72
2022/11/11 06:42:36;;;;;;;4.03;2.13;;;;;;;8.85;100.00;102542.09;6187701;28;20622;-71
2022/11/11 06:45:38;;;;;;;3.17;1.90;;;;;;;8.88;100.00;102539.44;6180680;28;20431;-72
2022/11/11 06:48:42;;;;;;;2.70;1.42;;;;;;;8.85;100.00;102531.59;6176686;28;20055;-72
2022/11/11 06:51:43;;;;;;;2.85;1.77;;;;;;;8.88;100.00;102534.19;6176011;28;20051;-73
2022/11/11 06:54:45;;;;;;;3.40;1.80;;;;;;;8.83;100.00;102550.88;6176118;28;20498;-72
2022/11/11 06:57:46;;;;;;;4.85;1.40;;;;;;;8.87;100.00;102561.31;6176258;28;20051;-72
2022/11/11 07:00:49;;;;;;;4.28;1.50;;;;;;;8.88;100.00;102552.53;6175765;28;20051;-72
2022/11/11 07:03:51;;;;;;;3.15;1.50;;;;;;;8.90;100.00;102555.13;6175502;28;20446;-72
2022/11/11 07:06:53;;;;;;;11.75;1.80;;;;;;;8.92;100.00;102562.97;6175706;28;20089;-72
2022/11/11 07:09:55;;;;;;;3.78;1.17;;;;;;;8.95;100.00;102555.03;6188006;28;20057;-72
2022/11/11 07:12:56;;;;;;;3.38;1.67;;;;;;;8.95;100.00;102544.56;6199835;28;20089;-72
2022/11/11 07:15:58;;;;;;;4.85;2.20;;;;;;;8.95;100.00;102558.56;6199757;28;20050;-72
2022/11/11 07:19:00;;;;;;;2.53;1.50;;;;;;;8.98;100.00;102553.25;6199769;28;20046;-72
2022/11/11 07:22:02;;;;;;;10.63;1.85;;;;;;;9.00;100.00;102564.59;6199145;28;20646;-72
2022/11/11 07:25:04;;;;;;;3.85;1.67;;;;;;;9.09;100.00;102569.66;6199166;28;20061;-72
2022/11/11 07:28:05;;;;;;;3.30;1.70;;;;;;;9.10;100.00;102567.91;6199481;28;20414;-73
2022/11/11 07:31:07;;;;;;;3.40;1.83;;;;;;;9.13;100.00;102570.47;6199202;28;20055;-73
2022/11/11 07:34:10;;;;;;;1.83;1.40;;;;;;;9.18;100.00;102568.63;6198910;28;20054;-73
2022/11/11 07:37:11;;;;;;;3.30;1.67;;;;;;;9.19;100.00;102572.97;6199552;28;20050;-72
2022/11/11 07:40:15;;;;;;;2.05;1.48;;;;;;;9.25;100.00;102577.25;6198804;28;20053;-72
2022/11/11 07:43:16;;;;;;;5.53;1.70;;;;;;;9.29;100.00;102574.53;6199114;28;20414;-72
2022/11/11 07:46:17;;;;;;;5.10;1.48;;;;;;;9.31;100.00;102575.38;6198752;28;20061;-72
2022/11/11 07:49:20;;;;;;;1.92;1.25;;;;;;;9.37;100.00;102582.28;6199124;28;20247;-72
2022/11/11 07:52:22;;;;;;;6.57;2.00;;;;;;;9.42;100.00;102577.78;6198576;28;20050;-72
2022/11/11 07:55:24;;;;;;;1.90;1.15;;;;;;;9.46;100.00;102589.97;6198769;28;20050;-72
2022/11/11 07:58:25;;;;;;;4.63;1.80;;;;;;;9.47;100.00;102588.22;6198875;28;20050;-72
2022/11/11 08:01:27;;;;;;;1.88;1.30;;;;;;;9.54;100.00;102600.34;6195999;28;20050;-73
2022/11/11 08:04:30;;;;;;;3.10;1.42;;;;;;;9.60;100.00;102600.19;6194290;28;20050;-73
2022/11/11 08:07:34;;;;;;;5.00;1.67;;;;;;;9.67;100.00;102607.03;6198095;28;20050;-73
2022/11/11 08:10:36;;;;;;;1.80;1.50;;;;;;;9.70;100.00;102609.63;6197703;28;20105;-73
2022/11/11 08:13:39;;;;;;;5.03;1.40;;;;;;;9.76;100.00;102619.97;6198465;28;20050;-73
2022/11/11 08:16:41;;;;;;;5.05;1.60;;;;;;;9.81;100.00;102626.03;6198637;28;20054;-73
2022/11/11 08:19:43;;;;;;;3.17;1.30;;;;;;;9.90;100.00;102617.09;6198025;28;20422;-72
2022/11/11 08:22:45;;;;;;;5.95;2.28;;;;;;;9.92;100.00;102625.81;6198566;28;20061;-73
2022/11/11 08:25:46;;;;;;;3.08;1.40;;;;;;;9.97;100.00;102613.44;6197632;28;20053;-73
2022/11/11 08:28:48;;;;;;;2.25;1.45;;;;;;;10.03;100.00;102620.31;6198327;28;20425;-72
2022/11/11 08:31:52;;;;;;;3.80;1.70;;;;;;;10.07;100.00;102630.75;6197479;28;20536;-72
2022/11/11 08:34:55;;;;;;;4.70;1.73;;;;;;;10.15;100.00;102626.19;6197311;28;20054;-72
2022/11/11 08:38:00;;;;;;;2.80;1.60;;;;;;;10.19;100.00;102631.38;6197966;28;20051;-72
2022/11/11 08:41:03;;;;;;;2.70;1.33;;;;;;;10.24;100.00;102637.41;6197549;28;20498;-72
2022/11/11 08:44:05;;;;;;;5.13;1.60;;;;;;;10.26;100.00;102643.50;6197174;28;20053;-72
2022/11/11 08:47:06;;;;;;;2.47;1.38;;;;;;;10.31;100.00;102637.28;6197892;28;20417;-72
2022/11/11 08:50:10;;;;;;;1.75;1.30;;;;;;;10.36;100.00;102635.41;6197396;28;20057;-71
2022/11/11 08:53:11;;;;;;;3.72;1.50;;;;;;;10.39;100.00;102640.59;6197768;28;20502;-72
2022/11/11 08:56:13;;;;;;;4.72;1.73;;;;;;;10.50;100.00;102650.03;6197466;28;20124;-72
2022/11/11 08:59:14;;;;;;;5.18;1.27;;;;;;;10.55;100.00;102661.28;6197596;28;20061;-73
2022/11/11 09:02:16;;;;;;;2.47;1.60;;;;;;;10.58;100.00;102661.19;6197529;28;20061;-73
2022/11/11 09:05:19;;;;;;;4.40;1.55;;;;;;;10.64;100.00;102658.44;6197061;28;20446;-73
2022/11/11 09:08:20;;;;;;;2.85;1.08;;;;;;;10.67;100.00;102661.00;6197945;28;20050;-74
2022/11/11 09:11:22;;;;;;;4.75;1.30;;;;;;;10.70;100.00;102662.69;6196989;28;20050;-73
2022/11/11 09:14:23;;;;;;;2.13;0.93;;;;;;;10.75;100.00;102668.72;6197298;28;20058;-72
2022/11/11 09:17:25;;;;;;;2.50;1.20;;;;;;;10.82;100.00;102660.66;6197583;28;20054;-73
2022/11/11 09:20:28;;;;;;;3.33;1.20;;;;;;;10.85;100.00;102665.81;6197097;28;20062;-73
2022/11/11 09:23:29;;;;;;;3.35;1.30;;;;;;;10.89;100.00;102664.00;6197332;28;20422;-72
2022/11/11 09:26:30;;;;;;;2.13;1.20;;;;;;;10.93;100.00;102673.53;6196923;28;20514;-73
2022/11/11 09:29:32;;;;;;;2.58;1.23;;;;;;;10.97;99.93;102674.34;6197316;28;20057;-73
2022/11/11 09:32:33;;;;;;;2.90;1.30;;;;;;;11.06;99.52;102667.09;6197029;28;20061;-73
2022/11/11 09:35:36;;;;;;;2.00;1.40;;;;;;;11.09;99.36;102677.53;6197048;28;20042;-72
2022/11/11 09:38:38;;;;;;;4.32;1.48;;;;;;;11.15;98.71;102680.00;6197351;28;20058;-71
2022/11/11 09:41:52;;;;;;;0.93;0.80;;;;;;;11.21;98.91;102671.09;6197095;28;20061;-72
2022/11/11 09:45:09;;;;;;;1.35;1.00;;;;;;;11.29;98.25;102670.91;6196704;28;20046;-72
2022/11/11 09:48:30;;;;;;;1.83;1.00;;;;;;;11.30;97.83;102673.50;6202176;28;20054;-72
2022/11/11 09:51:43;;;;;;;1.42;1.00;;;;;;;11.39;97.83;102675.03;6201131;28;20050;-72
2022/11/11 09:54:50;;;;;;;2.40;0.95;;;;;;;11.43;96.41;102674.91;6201554;28;20054;-73
2022/11/11 09:57:57;;;;;;;2.75;1.10;;;;;;;11.56;95.81;102672.81;6201603;28;20646;-72
2022/11/11 10:01:05;;;;;;;1.83;1.20;;;;;;;11.60;95.83;102668.34;6201378;28;20047;-73
2022/11/11 10:04:19;;;;;;;4.30;1.35;;;;;;;11.62;95.12;102662.13;6200979;28;20053;-73
2022/11/11 10:07:30;;;;;;;3.33;1.05;;;;;;;11.72;95.05;102673.28;6201738;28;20053;-72
2022/11/11 10:10:41;;;;;;;4.50;0.93;;;;;;;11.80;94.87;102673.06;6200724;28;20046;-73
2022/11/11 10:13:43;;;;;;;4.93;2.40;;;;;;;11.92;93.94;102670.13;6200957;28;20054;-70
2022/11/11 10:16:57;;;;;;;1.67;1.05;;;;;;;11.98;93.11;102666.44;6201288;28;20054;-71
2022/11/11 10:20:06;;;;;;;2.20;0.95;;;;;;;12.06;93.28;102661.81;6200856;28;20054;-74
2022/11/11 10:23:14;;;;;;;4.82;1.23;;;;;;;12.11;93.27;102655.50;6201070;28;20053;-73
2022/11/11 10:26:20;;;;;;;3.22;1.10;;;;;;;12.21;91.86;102652.59;6200587;28;20042;-72
2022/11/11 10:29:23;;;;;;;1.30;0.90;;;;;;;12.34;90.64;102652.19;6201258;28;20486;-73
2022/11/11 10:32:27;;;;;;;3.15;1.05;;;;;;;12.40;90.52;102637.97;6200516;28;20050;-74
2022/11/11 10:35:31;;;;;;;2.60;0.88;;;;;;;12.54;89.67;102637.56;6200198;28;20077;-73
2022/11/11 10:38:42;;;;;;;1.85;1.58;;;;;;;12.60;90.42;102643.47;6200754;28;20399;-73
2022/11/11 10:41:47;;;;;;;1.45;0.90;;;;;;;12.72;90.10;102646.63;6200293;28;20498;-73
2022/11/11 10:44:50;;;;;;;1.83;0.90;;;;;;;12.84;89.45;102662.94;6200423;28;20046;-73
2022/11/11 10:47:58;;;;;;;5.28;0.80;;;;;;;12.97;88.08;102665.19;6200329;28;20050;-73
2022/11/11 10:51:02;;;;;;;5.50;1.00;;;;;;;12.96;87.20;102666.97;6200223;28;20057;-73
2022/11/11 10:54:12;;;;;;;6.07;0.90;;;;;;;12.95;86.91;102666.13;6199776;28;20051;-72
2022/11/11 10:57:19;;;;;;;0.98;0.70;;;;;;;12.91;87.44;102675.03;6199881;28;20062;-73
2022/11/11 11:00:21;;;;;;;3.42;0.73;;;;;;;13.02;87.90;102677.31;6199796;28;20050;-72
2022/11/11 11:03:26;;;;;;;0.60;0.60;;;;;;;13.24;86.94;102685.44;6200246;28;20060;-74
2022/11/11 11:06:29;;;;;;;1.38;0.95;;;;;;;13.41;85.98;102677.81;6199545;28;20049;-73
2022/11/11 11:09:39;;;;;;;5.40;1.58;;;;;;;13.60;85.35;102685.09;6199840;28;20058;-73
2022/11/11 11:12:47;;;;;;;1.65;0.95;;;;;;;13.73;84.64;102681.09;6175693;28;20422;-73
2022/11/11 11:15:55;;;;;;;1.80;0.80;;;;;;;13.91;83.40;102688.38;6175489;28;20054;-73
2022/11/11 11:19:15;;;;;;;1.50;0.60;;;;;;;14.02;83.37;102681.81;6175725;28;20057;-74
2022/11/11 11:22:16;;;;;;;2.65;1.05;;;;;;;13.91;82.51;102683.09;6174945;28;20526;-76
2022/11/11 11:25:21;;;;;;;3.40;0.85;;;;;;;13.82;82.65;102688.72;6175185;28;20406;-74
2022/11/11 11:28:22;;;;;;;7.30;1.27;;;;;;;13.77;83.29;102680.09;6175711;28;20288;-75
2022/11/11 11:31:35;;;;;;;2.97;0.65;;;;;;;13.75;84.55;102688.97;6174998;28;20053;-74
2022/11/11 11:34:48;;;;;;;1.38;0.82;;;;;;;13.70;83.69;102684.72;6195982;28;20117;-75
2022/11/11 11:37:51;;;;;;;2.38;0.80;;;;;;;13.59;83.41;102680.72;6199199;28;20042;-74
2022/11/11 11:40:56;;;;;;;4.60;0.73;;;;;;;13.62;84.46;102683.25;6199172;28;20053;-74
2022/11/11 11:43:57;;;;;;;1.92;0.88;;;;;;;13.61;84.10;102687.66;6198724;28;20050;-74
2022/11/11 11:47:12;;;;;;;1.42;0.80;;;;;;;13.66;83.45;102685.72;6199385;28;20490;-74
2022/11/11 11:50:29;;;;;;;1.13;0.63;;;;;;;13.78;83.12;102688.88;6174392;28;20053;-75
2022/11/11 11:53:43;;;;;;;1.85;0.80;;;;;;;13.75;83.36;102686.31;6175101;28;20054;-76
2022/11/11 11:56:50;;;;;;;1.27;0.52;;;;;;;13.80;83.73;102687.03;6174932;28;20051;-74
2022/11/11 12:00:00;;;;;;;0.80;0.80;;;;;;;13.90;83.37;102684.00;6174804;28;20050;-75
2022/11/11 12:03:16;;;;;;;4.95;1.10;;;;;;;13.89;82.64;102679.63;6175249;28;20050;-74
2022/11/11 12:06:26;;;;;;;3.83;0.70;;;;;;;13.96;82.27;102680.28;6174088;28;20046;-75
2022/11/11 12:09:41;;;;;;;3.50;0.77;;;;;;;14.01;82.29;102675.69;6174000;28;20061;-76
2022/11/11 12:12:53;;;;;;;3.33;1.00;;;;;;;14.06;82.07;102675.50;6174246;28;20502;-76
2022/11/11 12:16:02;;;;;;;2.10;0.55;;;;;;;14.10;81.84;102675.34;6174429;28;20054;-76
2022/11/11 12:19:19;;;;;;;1.25;0.75;;;;;;;14.21;81.31;102667.84;6174349;28;20057;-75
2022/11/11 12:22:34;;;;;;;0.60;0.60;;;;;;;14.26;81.08;102674.75;6173723;28;20426;-75
2022/11/11 12:25:46;;;;;;;1.20;0.70;;;;;;;14.29;81.30;102666.72;6187616;28;20050;-75
2022/11/11 12:29:02;;;;;;;2.88;0.60;;;;;;;14.28;81.48;102667.63;6198377;28;20047;-75
2022/11/11 12:32:20;;;;;;;4.45;1.00;;;;;;;14.37;82.37;102668.16;6197867;28;20054;-75
2022/11/11 12:35:39;;;;;;;4.20;0.80;;;;;;;14.38;81.17;102664.56;6197675;28;20392;-76
2022/11/11 12:38:51;;;;;;;1.38;0.65;;;;;;;14.42;81.03;102660.03;6198461;28;20049;-75
2022/11/11 12:42:07;;;;;;;1.75;0.50;;;;;;;14.46;81.10;102670.44;6197528;28;20109;-75
2022/11/11 12:45:17;;;;;;;9.30;1.20;;;;;;;14.52;80.22;102672.00;6203648;23;20065;-72
2022/11/11 12:48:37;;;;;;;1.95;0.70;;;;;;;14.54;80.02;102664.88;6197256;28;20058;-73
2022/11/11 12:51:50;;;;;;;0.88;0.60;;;;;;;14.51;80.42;102654.41;6188371;28;20062;-73
2022/11/11 12:55:09;;;;;;;5.22;0.82;;;;;;;14.53;80.08;102660.50;6173987;28;20051;-74
2022/11/11 12:58:22;;;;;;;5.35;0.68;;;;;;;14.55;79.91;102649.88;6197812;28;20494;-73
2022/11/11 13:01:38;;;;;;;0.70;0.60;;;;;;;14.50;79.20;102649.19;6197429;28;20047;-73
2022/11/11 13:04:54;;;;;;;0.80;0.57;;;;;;;14.47;79.54;102655.41;6197197;28;20520;-74
2022/11/11 13:08:21;;;;;;;0.80;0.70;;;;;;;14.45;79.05;102655.50;6204913;28;20049;-74
2022/11/11 13:11:33;;;;;;;0.95;0.82;;;;;;;14.43;79.50;102653.81;6211076;28;20050;-73
2022/11/11 13:14:48;;;;;;;0.90;0.60;;;;;;;14.37;78.51;102648.78;6211857;28;20053;-73
2022/11/11 13:17:51;;;;;;;2.45;0.88;;;;;;;14.32;78.89;102659.53;6222047;28;20068;-73
2022/11/11 13:20:58;;;;;;;2.55;0.73;;;;;;;14.37;79.54;102659.34;6220410;28;20054;-73
2022/11/11 13:24:00;;;;;;;3.90;1.35;;;;;;;14.33;77.64;102669.19;6217189;28;20049;-74
2022/11/11 13:27:05;;;;;;;2.65;0.60;;;;;;;14.26;77.59;102662.41;6202352;28;20046;-73
2022/11/11 13:30:42;;;;;;;1.58;0.50;;;;;;;14.24;77.86;102668.66;6202234;28;20050;-73
2022/11/11 13:33:48;;;;;;;2.60;0.68;;;;;;;14.26;77.06;102669.47;6187018;28;20411;-73
2022/11/11 13:36:52;;;;;;;0.63;0.52;;;;;;;14.18;77.39;102670.63;6196339;28;20054;-73
2022/11/11 13:40:02;;;;;;;1.90;0.50;;;;;;;14.17;76.71;102671.56;6208335;28;20050;-73
2022/11/11 13:43:04;;;;;;;1.42;0.50;;;;;;;14.12;76.20;102675.28;6211106;28;20065;-73
2022/11/11 13:46:07;;;;;;;3.60;0.68;;;;;;;14.10;76.81;102675.34;6206020;28;20042;-74
2022/11/11 13:49:23;;;;;;;0.85;0.60;;;;;;;14.04;77.66;102674.72;6201724;28;20054;-74
2022/11/11 13:52:27;;;;;;;1.77;0.60;;;;;;;13.96;78.06;102681.13;6200645;28;20047;-74
2022/11/11 13:55:33;;;;;;;1.35;0.70;;;;;;;13.94;78.37;102682.97;6211717;28;20130;-73
2022/11/11 13:58:38;;;;;;;3.53;0.50;;;;;;;13.85;77.79;102683.31;6217095;28;20050;-73
2022/11/11 14:01:40;;;;;;;0.98;0.80;;;;;;;13.80;78.12;102684.38;6201715;28;20078;-72
2022/11/11 14:05:16;;;;;;;0.68;0.68;;;;;;;13.71;78.40;102683.78;6201064;28;20403;-73
2022/11/11 14:08:53;;;;;;;1.67;0.52;;;;;;;13.64;78.31;102684.94;6201580;28;20061;-74
2022/11/11 14:12:20;;;;;;;1.25;0.60;;;;;;;13.62;78.28;102678.81;6197590;28;20054;-73
2022/11/11 14:15:37;;;;;;;0.65;0.65;;;;;;;13.59;78.84;102675.44;6200978;28;20050;-74
2022/11/11 14:18:45;;;;;;;3.25;0.88;;;;;;;13.53;78.82;102678.28;6199383;28;20516;-73
2022/11/11 14:21:50;;;;;;;1.55;0.90;;;;;;;13.49;79.22;102688.13;6189582;28;20046;-72
2022/11/11 14:24:51;;;;;;;0.70;0.50;;;;;;;13.45;79.56;102681.22;6203500;28;20057;-74
2022/11/11 14:27:53;;;;;;;1.02;0.80;;;;;;;13.42;79.94;102678.66;6218863;28;20049;-73
2022/11/11 14:30:58;;;;;;;0.43;0.43;;;;;;;13.38;79.83;102684.97;6225164;28;20049;-73
2022/11/11 14:34:07;;;;;;;3.33;1.00;;;;;;;13.36;80.70;102687.66;6217286;28;20058;-74
2022/11/11 14:37:22;;;;;;;2.65;1.00;;;;;;;13.30;81.79;102685.22;6221241;28;20053;-73
2022/11/11 14:40:26;;;;;;;1.77;0.90;;;;;;;13.23;82.60;102691.63;6224627;28;20419;-72
2022/11/11 14:43:39;;;;;;;0.90;0.70;;;;;;;13.15;83.66;102697.13;6225194;28;20053;-72
2022/11/11 14:47:31;;;;;;;3.78;1.17;;;;;;;13.04;84.35;102698.41;6222948;28;20104;-73
2022/11/11 14:50:44;;;;;;;1.88;0.90;;;;;;;12.99;85.33;102695.91;6206853;28;20083;-74
2022/11/11 14:53:52;;;;;;;0.60;0.55;;;;;;;12.91;86.11;102692.66;6186157;28;20094;-73
2022/11/11 14:56:58;;;;;;;3.97;0.82;;;;;;;12.83;86.97;102698.16;6185894;28;20249;-73
2022/11/11 15:00:02;;;;;;;0.60;0.47;;;;;;;12.79;86.85;102691.25;6176101;28;20065;-79
2022/11/11 15:03:10;;;;;;;0.82;0.40;;;;;;;12.75;88.04;102700.16;6176183;28;20043;-73
2022/11/11 15:06:18;;;;;;;1.05;0.82;;;;;;;12.72;87.29;102702.03;6175710;28;20058;-73
2022/11/11 15:09:40;;;;;;;1.02;0.60;;;;;;;12.63;88.53;102693.50;6175866;28;20047;-73
2022/11/11 15:13:09;;;;;;;0.80;0.60;;;;;;;12.58;88.57;102695.44;6175728;28;20442;-73
2022/11/11 15:16:24;;;;;;;1.58;0.73;;;;;;;12.55;88.46;102698.16;6165096;28;20043;-73
2022/11/11 15:19:47;;;;;;;4.35;0.63;;;;;;;12.47;89.46;102704.56;6184889;28;20051;-73